Time;durP1;ratioP1;P1;durP2;ratioP2;P2;SDS_P1;SDS_P2;PMS_P1;PMS_P2;Temp;Humidity;BMP_temperature;BMP_pressure;BME280_temperature;BME280_humidity;BME280_pressure;Samples;Min_cycle;Max_cycle;Signal;HPM_P1;HPM_P2
2023/11/05 00:02:31;;;;;;;2.37;1.40;;;;;;;5.08;100.00;95154.72;6217567;28;20203;-53
2023/11/05 00:05:34;;;;;;;1.40;1.30;;;;;;;5.35;100.00;95188.66;6216146;28;20215;-54
2023/11/05 00:08:37;;;;;;;1.90;1.40;;;;;;;5.35;100.00;95184.16;6214285;28;20197;-54
2023/11/05 00:11:40;;;;;;;3.13;1.50;;;;;;;5.36;100.00;95196.31;6215856;28;20321;-52
2023/11/05 00:14:43;;;;;;;3.77;1.70;;;;;;;5.37;100.00;95189.97;6218190;28;20559;-52
2023/11/05 00:17:45;;;;;;;1.60;1.13;;;;;;;5.39;100.00;95190.50;6216664;28;20739;-52
2023/11/05 00:20:47;;;;;;;1.73;1.30;;;;;;;5.41;100.00;95190.22;6216981;28;20215;-53
2023/11/05 00:23:49;;;;;;;2.00;1.27;;;;;;;5.41;100.00;95192.84;6216608;28;20251;-54
2023/11/05 00:26:51;;;;;;;1.63;1.20;;;;;;;5.45;100.00;95217.66;6216132;28;20660;-54
2023/11/05 00:29:54;;;;;;;1.43;1.30;;;;;;;5.47;100.00;95230.59;6232801;28;20231;-53
2023/11/05 00:32:56;;;;;;;2.10;1.20;;;;;;;5.51;100.00;95234.28;6217026;28;20620;-52
2023/11/05 00:35:59;;;;;;;2.73;1.30;;;;;;;5.52;100.00;95254.34;6216023;28;20199;-54
2023/11/05 00:39:01;;;;;;;1.30;1.20;;;;;;;5.53;100.00;95282.34;6214335;28;20211;-53
2023/11/05 00:42:04;;;;;;;2.17;1.20;;;;;;;5.56;100.00;95263.31;6217219;28;20561;-55
2023/11/05 00:45:07;;;;;;;1.50;1.07;;;;;;;5.60;100.00;95309.25;6215221;28;20667;-53
2023/11/05 00:48:09;;;;;;;1.20;1.10;;;;;;;5.64;100.00;95292.59;6215256;28;20661;-54
2023/11/05 00:51:11;;;;;;;1.20;1.10;;;;;;;5.66;100.00;95279.13;6224240;28;20206;-55
2023/11/05 00:54:14;;;;;;;1.40;0.83;;;;;;;5.69;100.00;95273.31;6219258;28;20254;-53
2023/11/05 00:57:17;;;;;;;1.47;0.80;;;;;;;5.69;100.00;95266.16;6222066;28;20211;-54
2023/11/05 01:00:19;;;;;;;1.17;0.97;;;;;;;5.70;100.00;95254.53;6236851;28;20222;-55
2023/11/05 01:03:28;;;;;;;1.37;0.80;;;;;;;5.71;100.00;95247.41;6221417;28;20197;-53
2023/11/05 01:06:30;;;;;;;1.43;0.90;;;;;;;5.03;100.00;95128.34;6225417;28;20287;-53
2023/11/05 01:09:32;;;;;;;2.93;1.20;;;;;;;5.72;100.00;95219.16;6224107;28;20303;-54
2023/11/05 01:12:34;;;;;;;1.43;0.83;;;;;;;5.74;100.00;95212.53;6220214;28;20855;-55
2023/11/05 01:15:36;;;;;;;2.30;1.10;;;;;;;5.76;100.00;95191.91;6219320;28;20578;-54
2023/11/05 01:18:39;;;;;;;1.53;1.20;;;;;;;5.76;100.00;95170.78;6208849;28;20217;-55
2023/11/05 01:21:41;;;;;;;1.87;0.90;;;;;;;5.75;100.00;95157.84;6220972;28;20894;-53
2023/11/05 01:24:43;;;;;;;1.07;0.93;;;;;;;5.75;100.00;95147.28;6217480;28;20610;-54
2023/11/05 01:27:46;;;;;;;2.30;1.13;;;;;;;5.74;100.00;95148.34;6214870;28;20196;-55
2023/11/05 01:30:48;;;;;;;1.30;0.90;;;;;;;5.73;100.00;95152.84;6220769;28;20361;-54
2023/11/05 01:33:50;;;;;;;1.80;0.90;;;;;;;5.73;100.00;95166.06;6219398;28;20204;-54
2023/11/05 01:36:52;;;;;;;2.00;0.80;;;;;;;5.74;100.00;95174.75;6219528;28;20569;-54
2023/11/05 01:39:56;;;;;;;3.30;1.00;;;;;;;5.75;100.00;95171.06;6221040;28;20763;-55
2023/11/05 01:42:59;;;;;;;0.70;0.70;;;;;;;5.76;100.00;95157.56;6203311;28;20632;-54
2023/11/05 01:46:02;;;;;;;1.07;1.00;;;;;;;5.78;100.00;95149.38;6214143;28;20197;-55
2023/11/05 01:49:05;;;;;;;1.73;0.80;;;;;;;5.79;100.00;95157.03;6218666;28;20293;-54
2023/11/05 01:52:09;;;;;;;0.73;0.73;;;;;;;5.70;100.00;95129.59;6217359;28;20207;-54
2023/11/05 01:55:11;;;;;;;1.50;0.87;;;;;;;5.78;100.00;95141.47;6221332;28;20300;-55
2023/11/05 01:58:14;;;;;;;1.80;0.83;;;;;;;5.81;100.00;95130.31;6220139;28;20257;-54
2023/11/05 02:01:17;;;;;;;2.23;0.83;;;;;;;5.81;100.00;95120.56;6219678;28;20350;-55
2023/11/05 02:04:20;;;;;;;0.87;0.60;;;;;;;5.81;100.00;95115.28;6217651;28;20538;-57
2023/11/05 02:07:22;;;;;;;1.10;0.70;;;;;;;5.82;100.00;95111.59;6215824;28;20211;-54
2023/11/05 02:10:24;;;;;;;1.47;0.73;;;;;;;5.83;100.00;95110.50;6219392;28;20327;-55
2023/11/05 02:13:27;;;;;;;1.03;0.60;;;;;;;5.78;100.00;95096.56;6218292;28;20209;-55
2023/11/05 02:16:32;;;;;;;0.70;0.63;;;;;;;5.85;100.00;95097.81;6216812;28;20211;-55
2023/11/05 02:19:35;;;;;;;0.70;0.60;;;;;;;5.86;100.00;95102.03;6220159;28;20225;-56
2023/11/05 02:22:40;;;;;;;0.93;0.70;;;;;;;5.87;100.00;95092.25;6219655;28;20231;-55
2023/11/05 02:25:43;;;;;;;0.90;0.60;;;;;;;5.75;100.00;95073.31;6214021;28;20207;-56
2023/11/05 02:28:45;;;;;;;0.97;0.80;;;;;;;5.88;100.00;95086.69;6221805;28;20203;-55
2023/11/05 02:31:47;;;;;;;0.97;0.77;;;;;;;5.86;100.00;95083.56;6219258;28;20232;-54
2023/11/05 02:34:49;;;;;;;1.33;0.80;;;;;;;5.91;100.00;95090.63;6216307;28;20200;-56
2023/11/05 02:37:51;;;;;;;0.77;0.70;;;;;;;5.90;100.00;95074.00;6224952;28;20208;-55
2023/11/05 02:40:54;;;;;;;1.93;0.80;;;;;;;5.92;100.00;95055.25;6213885;28;20563;-55
2023/11/05 02:43:56;;;;;;;0.90;0.70;;;;;;;5.89;100.00;95040.72;6219456;28;20200;-55
2023/11/05 02:46:58;;;;;;;1.03;0.70;;;;;;;5.84;100.00;95035.47;6217880;28;20204;-56
2023/11/05 02:50:00;;;;;;;0.97;0.60;;;;;;;6.02;100.00;95054.41;6218143;28;20206;-55
2023/11/05 02:53:02;;;;;;;1.90;0.80;;;;;;;6.06;100.00;95061.50;6217484;28;20572;-56
2023/11/05 02:56:08;;;;;;;2.13;0.60;;;;;;;6.13;100.00;95055.88;6214189;28;20401;-54
2023/11/05 02:59:22;;;;;;;0.90;0.60;;;;;;;6.19;100.00;95063.47;6217427;28;20216;-55
2023/11/05 03:02:26;;;;;;;1.40;0.80;;;;;;;6.22;100.00;95066.66;6203440;28;20214;-56
2023/11/05 03:05:30;;;;;;;0.83;0.67;;;;;;;6.30;100.00;95081.88;6213664;28;20382;-55
2023/11/05 03:08:33;;;;;;;0.50;0.50;;;;;;;6.33;100.00;95081.34;6227646;28;20202;-55
2023/11/05 03:11:40;;;;;;;1.20;0.80;;;;;;;5.91;100.00;95028.06;6218414;28;20205;-55
2023/11/05 03:14:44;;;;;;;0.50;0.50;;;;;;;6.34;100.00;95091.63;6220782;28;20193;-56
2023/11/05 03:17:47;;;;;;;0.70;0.70;;;;;;;6.36;100.00;95080.81;6219299;28;20777;-56
2023/11/05 03:20:49;;;;;;;0.70;0.70;;;;;;;6.38;100.00;95081.28;6216957;28;20217;-55
2023/11/05 03:23:51;;;;;;;0.60;0.60;;;;;;;6.37;100.00;95071.78;6214983;28;20205;-56
2023/11/05 03:26:54;;;;;;;1.97;0.73;;;;;;;6.40;100.00;95056.16;6214217;28;20203;-55
2023/11/05 03:29:56;;;;;;;0.70;0.70;;;;;;;6.40;100.00;95047.41;6215905;28;20878;-55
2023/11/05 03:32:58;;;;;;;1.40;1.03;;;;;;;6.39;100.00;95032.63;6217893;28;20196;-54
2023/11/05 03:36:02;;;;;;;1.13;0.70;;;;;;;6.37;100.00;95029.50;6215177;28;20220;-54
2023/11/05 03:39:04;;;;;;;1.20;0.90;;;;;;;6.36;100.00;95044.56;6219095;28;20715;-55
2023/11/05 03:42:07;;;;;;;1.93;0.80;;;;;;;6.38;100.00;95042.41;6217790;28;20193;-55
2023/11/05 03:45:10;;;;;;;4.10;0.90;;;;;;;6.40;100.00;95064.09;6216703;28;20690;-53
2023/11/05 03:48:12;;;;;;;2.37;0.70;;;;;;;6.30;100.00;95043.03;6215954;28;20282;-55
2023/11/05 03:51:15;;;;;;;1.30;0.77;;;;;;;6.41;100.00;95078.91;6210974;28;20266;-55
2023/11/05 03:54:17;;;;;;;1.83;0.90;;;;;;;6.44;100.00;95072.25;6216456;28;20185;-55
2023/11/05 03:57:19;;;;;;;4.43;1.10;;;;;;;6.45;100.00;95074.63;6210854;28;20603;-55
2023/11/05 04:00:21;;;;;;;1.93;0.83;;;;;;;6.46;100.00;95062.97;6216053;28;20224;-54
2023/11/05 04:03:24;;;;;;;1.60;0.93;;;;;;;6.47;100.00;95058.47;6217735;28;20587;-55
2023/11/05 04:06:26;;;;;;;3.50;1.23;;;;;;;6.48;100.00;95060.03;6216684;28;20231;-55
2023/11/05 04:09:28;;;;;;;2.27;0.80;;;;;;;6.33;100.00;95033.75;6217710;28;20778;-56
2023/11/05 04:12:30;;;;;;;1.37;1.03;;;;;;;6.41;100.00;95047.16;6218403;28;20193;-54
2023/11/05 04:15:32;;;;;;;1.40;0.80;;;;;;;6.44;100.00;95045.78;6212409;28;20204;-55
2023/11/05 04:18:34;;;;;;;1.47;0.83;;;;;;;6.04;100.00;94983.53;6217676;28;20569;-55
2023/11/05 04:21:36;;;;;;;2.97;1.03;;;;;;;6.33;100.00;95029.25;6217380;28;20212;-55
2023/11/05 04:24:38;;;;;;;3.13;0.90;;;;;;;6.46;100.00;95049.75;6217205;28;20204;-56
2023/11/05 04:27:40;;;;;;;3.67;1.00;;;;;;;6.39;100.00;95046.63;6222845;28;20197;-56
2023/11/05 04:30:42;;;;;;;1.13;0.87;;;;;;;6.50;100.00;95059.75;6221795;28;20777;-55
2023/11/05 04:33:44;;;;;;;1.57;1.03;;;;;;;6.48;100.00;95046.81;6221695;28;20743;-56
2023/11/05 04:36:47;;;;;;;2.30;1.00;;;;;;;6.50;100.00;95049.19;6221644;28;20329;-56
2023/11/05 04:39:49;;;;;;;1.00;0.90;;;;;;;6.51;100.00;95045.50;6222013;28;20220;-56
2023/11/05 04:42:51;;;;;;;2.80;1.13;;;;;;;6.51;100.00;95046.28;6221677;28;20573;-55
2023/11/05 04:45:53;;;;;;;1.47;0.90;;;;;;;6.52;100.00;95055.00;6222730;28;20759;-56
2023/11/05 04:48:55;;;;;;;1.77;0.70;;;;;;;6.53;100.00;95059.22;6220111;28;20742;-56
2023/11/05 04:51:57;;;;;;;1.90;0.97;;;;;;;6.51;100.00;95051.56;6216517;28;20205;-54
2023/11/05 04:55:00;;;;;;;2.20;1.03;;;;;;;6.52;100.00;95037.25;6221395;28;20197;-56
2023/11/05 04:58:02;;;;;;;2.27;0.90;;;;;;;6.53;100.00;95027.47;6219862;28;20195;-55
2023/11/05 05:01:04;;;;;;;2.10;0.87;;;;;;;6.53;100.00;95017.66;6219996;28;20712;-55
2023/11/05 05:04:06;;;;;;;2.93;1.13;;;;;;;6.54;100.00;95010.53;6221817;28;20196;-55
2023/11/05 05:07:08;;;;;;;1.63;0.90;;;;;;;6.53;100.00;94996.50;6220481;28;20199;-55
2023/11/05 05:10:10;;;;;;;2.50;1.20;;;;;;;6.54;100.00;94997.31;6219103;28;20211;-56
2023/11/05 05:13:14;;;;;;;0.97;0.80;;;;;;;6.29;100.00;94956.06;6220552;28;20552;-55
2023/11/05 05:16:18;;;;;;;1.53;1.17;;;;;;;6.44;100.00;94967.25;6218036;28;20200;-54
2023/11/05 05:19:20;;;;;;;2.57;1.30;;;;;;;6.54;100.00;94976.13;6222796;28;20653;-52
2023/11/05 05:22:22;;;;;;;1.57;0.90;;;;;;;6.54;100.00;94971.63;6218124;28;20217;-54
2023/11/05 05:25:25;;;;;;;2.50;0.90;;;;;;;6.53;100.00;94980.66;6220209;28;20247;-56
2023/11/05 05:28:27;;;;;;;1.40;1.10;;;;;;;6.41;100.00;94965.19;6220492;28;20664;-55
2023/11/05 05:31:29;;;;;;;4.30;1.03;;;;;;;6.56;100.00;94992.53;6218818;28;20228;-55
2023/11/05 05:34:35;;;;;;;0.80;0.80;;;;;;;6.56;100.00;94998.59;6219228;28;20676;-56
2023/11/05 05:37:37;;;;;;;1.00;0.80;;;;;;;6.57;100.00;94996.75;6222449;28;20204;-56
2023/11/05 05:40:39;;;;;;;1.77;1.00;;;;;;;6.58;100.00;95014.19;6215692;28;20210;-55
2023/11/05 05:43:41;;;;;;;1.77;0.70;;;;;;;6.58;100.00;95027.41;6220169;28;20216;-55
2023/11/05 05:46:45;;;;;;;2.20;1.00;;;;;;;6.56;100.00;95048.06;6218702;28;20333;-54
2023/11/05 05:49:47;;;;;;;2.57;1.03;;;;;;;6.56;100.00;95056.78;6218966;28;20204;-54
2023/11/05 05:52:49;;;;;;;1.53;0.97;;;;;;;6.36;100.00;95031.34;6218636;28;20278;-53
2023/11/05 05:55:51;;;;;;;1.20;0.93;;;;;;;6.58;100.00;95064.44;6220224;28;20208;-53
2023/11/05 05:58:54;;;;;;;0.83;0.80;;;;;;;6.57;100.00;95052.28;6217181;28;20683;-54
2023/11/05 06:01:56;;;;;;;2.47;1.00;;;;;;;6.56;100.00;95051.50;6220230;28;20204;-54
2023/11/05 06:04:58;;;;;;;1.13;0.97;;;;;;;6.47;100.00;95037.31;6219334;28;20204;-54
2023/11/05 06:08:00;;;;;;;1.67;0.97;;;;;;;6.56;100.00;95033.00;6219031;28;20193;-53
2023/11/05 06:11:03;;;;;;;0.67;0.67;;;;;;;6.58;100.00;95019.47;6220892;28;20189;-53
2023/11/05 06:14:05;;;;;;;0.67;0.60;;;;;;;6.49;100.00;94997.34;6217337;28;20185;-53
2023/11/05 06:17:07;;;;;;;1.17;0.60;;;;;;;6.61;100.00;94995.13;6219597;28;20192;-54
2023/11/05 06:20:10;;;;;;;1.37;0.80;;;;;;;6.60;100.00;94985.59;6219691;28;20219;-54
2023/11/05 06:23:12;;;;;;;1.03;0.90;;;;;;;6.58;100.00;94980.59;6218346;28;20331;-54
2023/11/05 06:26:14;;;;;;;1.10;0.50;;;;;;;6.67;100.00;95001.91;6215694;28;20247;-55
2023/11/05 06:29:17;;;;;;;0.60;0.57;;;;;;;6.69;100.00;95002.41;6220055;28;20197;-54
2023/11/05 06:32:20;;;;;;;1.33;0.60;;;;;;;6.70;100.00;94996.06;6217817;28;20181;-55
2023/11/05 06:35:31;;;;;;;1.67;0.80;;;;;;;6.70;100.00;95001.38;6216819;28;20191;-54
2023/11/05 06:38:33;;;;;;;0.73;0.70;;;;;;;6.72;100.00;95004.50;6218135;28;20189;-55
2023/11/05 06:41:35;;;;;;;1.70;0.67;;;;;;;6.73;100.00;94964.53;6214902;28;20282;-53
2023/11/05 06:44:37;;;;;;;0.87;0.60;;;;;;;6.77;100.00;94937.50;6217019;28;20188;-53
2023/11/05 06:47:39;;;;;;;2.33;0.63;;;;;;;6.78;100.00;94963.69;6216941;28;20204;-55
2023/11/05 06:50:41;;;;;;;0.97;0.70;;;;;;;6.80;100.00;94995.94;6218122;28;20192;-55
2023/11/05 06:53:44;;;;;;;1.23;0.60;;;;;;;6.82;100.00;94998.31;6217280;28;20649;-54
2023/11/05 06:56:47;;;;;;;0.93;0.50;;;;;;;6.82;100.00;94980.56;6217833;28;20581;-52
2023/11/05 06:59:49;;;;;;;0.93;0.53;;;;;;;6.82;100.00;94962.03;6217452;28;20192;-54
2023/11/05 07:02:51;;;;;;;0.60;0.60;;;;;;;6.85;100.00;94932.38;6216875;28;20286;-53
2023/11/05 07:05:54;;;;;;;2.93;0.50;;;;;;;6.85;100.00;94878.69;6218063;28;20287;-53
2023/11/05 07:08:57;;;;;;;1.00;0.70;;;;;;;6.85;100.00;94780.78;6219818;28;20335;-53
2023/11/05 07:11:59;;;;;;;1.90;0.53;;;;;;;6.84;100.00;94782.59;6215648;28;20637;-55
2023/11/05 07:15:02;;;;;;;1.13;0.67;;;;;;;6.88;100.00;94811.94;6217620;28;20193;-56
2023/11/05 07:18:08;;;;;;;1.20;0.50;;;;;;;6.94;100.00;94813.41;6216405;28;20708;-55
2023/11/05 07:21:14;;;;;;;0.70;0.50;;;;;;;7.00;100.00;94851.97;6215891;28;20764;-55
2023/11/05 07:24:17;;;;;;;0.67;0.50;;;;;;;7.06;100.00;94887.09;6212168;28;20208;-56
2023/11/05 07:27:19;;;;;;;0.20;0.20;;;;;;;7.08;100.00;94922.78;6203299;28;20799;-55
2023/11/05 07:30:21;;;;;;;0.53;0.40;;;;;;;7.10;100.00;94947.13;6217662;28;20274;-56
2023/11/05 07:33:23;;;;;;;0.40;0.30;;;;;;;7.12;100.00;94946.81;6215141;28;20207;-55
2023/11/05 07:36:26;;;;;;;0.37;0.20;;;;;;;7.10;100.00;94927.81;6215826;28;20207;-57
2023/11/05 07:39:28;;;;;;;0.30;0.30;;;;;;;7.10;100.00;94946.34;6215108;28;20230;-55
2023/11/05 07:42:30;;;;;;;0.30;0.30;;;;;;;7.13;100.00;94949.16;6210904;28;20208;-56
2023/11/05 07:45:32;;;;;;;1.77;0.43;;;;;;;7.17;100.00;94958.13;6216679;28;20204;-57
2023/11/05 07:48:35;;;;;;;0.87;0.73;;;;;;;7.18;100.00;94964.97;6217624;28;20567;-57
2023/11/05 07:51:37;;;;;;;0.63;0.40;;;;;;;7.21;100.00;94943.25;6214004;28;20586;-56
2023/11/05 07:54:39;;;;;;;1.07;0.50;;;;;;;7.22;100.00;94936.88;6215436;28;20227;-57
2023/11/05 07:57:43;;;;;;;0.30;0.30;;;;;;;7.11;100.00;94900.25;6217670;28;20394;-57
2023/11/05 08:00:46;;;;;;;0.73;0.47;;;;;;;7.11;100.00;94889.66;6215445;28;20582;-56
2023/11/05 08:03:49;;;;;;;1.10;0.40;;;;;;;7.34;100.00;94904.66;6226041;28;20609;-56
2023/11/05 08:06:54;;;;;;;0.50;0.50;;;;;;;7.40;100.00;94892.13;6237021;28;20279;-56
2023/11/05 08:09:58;;;;;;;0.80;0.60;;;;;;;7.47;100.00;94876.63;6222525;28;20279;-57
2023/11/05 08:13:00;;;;;;;0.77;0.60;;;;;;;7.54;100.00;94876.25;6222454;28;20204;-57
2023/11/05 08:16:02;;;;;;;1.10;0.70;;;;;;;7.60;100.00;94875.09;6220242;28;20196;-56
2023/11/05 08:19:04;;;;;;;0.70;0.63;;;;;;;7.67;100.00;94852.44;6220317;28;20207;-57
2023/11/05 08:22:06;;;;;;;1.37;0.77;;;;;;;7.69;100.00;94837.06;6222295;28;20201;-56
2023/11/05 08:25:12;;;;;;;1.00;0.60;;;;;;;7.70;100.00;94835.19;6217486;28;20668;-56
2023/11/05 08:28:15;;;;;;;0.87;0.70;;;;;;;7.66;100.00;94827.03;6218971;28;20193;-56
2023/11/05 08:31:27;;;;;;;2.53;0.70;;;;;;;7.78;100.00;94823.09;6221899;28;20230;-57
2023/11/05 08:34:29;;;;;;;0.70;0.60;;;;;;;7.89;100.00;94830.59;6217298;28;20419;-56
2023/11/05 08:37:32;;;;;;;0.50;0.40;;;;;;;7.98;100.00;94822.72;6219947;28;20204;-56
2023/11/05 08:40:34;;;;;;;1.53;0.60;;;;;;;8.09;100.00;94860.44;6221476;28;21096;-55
2023/11/05 08:43:36;;;;;;;0.50;0.50;;;;;;;8.04;100.00;94895.78;6218886;28;20193;-57
2023/11/05 08:46:39;;;;;;;1.40;0.60;;;;;;;8.09;100.00;94893.03;6221455;28;20826;-57
2023/11/05 08:49:41;;;;;;;2.87;0.80;;;;;;;8.13;100.00;94891.38;6221769;28;20687;-54
2023/11/05 08:52:45;;;;;;;1.07;0.53;;;;;;;8.21;100.00;94880.06;6219170;28;20192;-55
2023/11/05 08:55:47;;;;;;;0.53;0.43;;;;;;;8.32;100.00;94885.94;6220975;28;20655;-56
2023/11/05 08:58:49;;;;;;;0.67;0.50;;;;;;;8.37;100.00;94893.03;6219448;28;20204;-55
2023/11/05 09:01:52;;;;;;;0.93;0.50;;;;;;;8.39;100.00;94891.69;6221223;28;20211;-56
2023/11/05 09:04:55;;;;;;;0.30;0.30;;;;;;;8.44;100.00;94904.84;6221312;28;20335;-55
2023/11/05 09:07:57;;;;;;;0.50;0.50;;;;;;;8.49;100.00;94902.09;6219260;28;20199;-55
2023/11/05 09:10:59;;;;;;;0.30;0.30;;;;;;;8.56;100.00;94906.19;6218897;28;20679;-55
2023/11/05 09:14:02;;;;;;;0.40;0.40;;;;;;;8.67;100.00;94896.94;6221273;28;20664;-55
2023/11/05 09:17:08;;;;;;;0.60;0.60;;;;;;;8.79;100.00;94907.84;6220989;28;20205;-56
2023/11/05 09:20:16;;;;;;;0.60;0.37;;;;;;;8.84;100.00;94899.75;6234684;28;20193;-55
2023/11/05 09:23:18;;;;;;;0.60;0.40;;;;;;;8.90;100.00;94879.19;6221207;28;20665;-56
2023/11/05 09:26:22;;;;;;;0.93;0.60;;;;;;;8.96;100.00;94876.13;6218130;28;20221;-55
2023/11/05 09:29:24;;;;;;;0.67;0.50;;;;;;;9.01;100.00;94881.34;6219409;28;20271;-56
2023/11/05 09:32:26;;;;;;;1.97;0.60;;;;;;;9.04;100.00;94886.03;6219027;28;20670;-55
2023/11/05 09:35:28;;;;;;;0.40;0.40;;;;;;;9.07;100.00;94883.88;6218767;28;20190;-56
2023/11/05 09:38:30;;;;;;;0.40;0.40;;;;;;;9.07;100.00;94883.88;6220735;28;20297;-55
2023/11/05 09:41:36;;;;;;;0.50;0.50;;;;;;;9.15;100.00;94885.81;6220719;28;20202;-55
2023/11/05 09:44:38;;;;;;;1.20;0.50;;;;;;;9.29;100.00;94884.66;6218048;28;20224;-55
2023/11/05 09:47:41;;;;;;;0.67;0.50;;;;;;;9.43;100.00;94889.13;6219861;28;20561;-56
2023/11/05 09:50:43;;;;;;;1.27;0.40;;;;;;;9.48;100.00;94871.19;6218351;28;20207;-55
2023/11/05 09:53:45;;;;;;;0.60;0.40;;;;;;;9.57;100.00;94879.22;6216574;28;20214;-56
2023/11/05 09:56:47;;;;;;;2.10;0.50;;;;;;;9.65;100.00;94875.81;6218492;28;20213;-56
2023/11/05 09:59:50;;;;;;;2.10;0.50;;;;;;;9.66;100.00;94877.41;6212742;28;20242;-55
2023/11/05 10:02:57;;;;;;;0.43;0.43;;;;;;;9.73;100.00;94887.59;6231994;28;20222;-56
2023/11/05 10:06:01;;;;;;;0.70;0.53;;;;;;;9.77;100.00;94896.53;6218708;28;20204;-56
2023/11/05 10:09:07;;;;;;;0.50;0.50;;;;;;;9.86;100.00;94900.03;6219589;28;20200;-55
2023/11/05 10:12:10;;;;;;;0.50;0.37;;;;;;;9.92;100.00;94900.69;6219494;28;20215;-56
2023/11/05 10:15:14;;;;;;;0.30;0.30;;;;;;;9.94;100.00;94901.94;6218809;28;20196;-56
2023/11/05 10:18:17;;;;;;;0.47;0.47;;;;;;;9.90;100.00;94894.88;6215981;28;20707;-54
2023/11/05 10:21:33;;;;;;;0.47;0.47;;;;;;;9.89;100.00;94903.94;6216515;28;20746;-54
2023/11/05 10:24:45;;;;;;;0.30;0.30;;;;;;;9.86;100.00;94910.66;6218740;28;20283;-55
2023/11/05 10:27:47;;;;;;;0.77;0.53;;;;;;;9.89;100.00;94906.59;6211799;28;20207;-55
2023/11/05 10:30:52;;;;;;;1.00;0.50;;;;;;;9.89;100.00;94887.97;6216903;28;20224;-56
2023/11/05 10:34:03;;;;;;;0.30;0.30;;;;;;;10.07;100.00;94897.63;6217202;28;20669;-55
2023/11/05 10:37:06;;;;;;;0.40;0.40;;;;;;;10.17;100.00;94905.31;6218932;28;20341;-56
2023/11/05 10:40:09;;;;;;;1.97;0.40;;;;;;;10.23;100.00;94890.78;6217053;28;20255;-56
2023/11/05 10:43:12;;;;;;;0.40;0.30;;;;;;;10.35;100.00;94890.25;6218552;28;20207;-57
2023/11/05 10:46:17;;;;;;;0.57;0.33;;;;;;;10.41;100.00;94883.69;6215938;28;20559;-57
2023/11/05 10:49:19;;;;;;;0.80;0.47;;;;;;;10.44;100.00;94883.09;6216756;28;20201;-55
2023/11/05 10:52:25;;;;;;;2.17;0.30;;;;;;;10.43;100.00;94886.81;6215902;28;20649;-57
2023/11/05 10:55:39;;;;;;;0.87;0.30;;;;;;;10.44;100.00;94896.38;6215910;28;20200;-56
2023/11/05 10:58:41;;;;;;;0.40;0.40;;;;;;;10.44;100.00;94890.25;6215785;28;20203;-56
2023/11/05 11:01:45;;;;;;;0.37;0.30;;;;;;;10.50;100.00;94879.19;6216363;28;20223;-56
2023/11/05 11:04:47;;;;;;;0.60;0.30;;;;;;;10.55;100.00;94888.91;6216461;28;20679;-56
2023/11/05 11:07:50;;;;;;;2.10;0.50;;;;;;;10.63;100.00;94885.44;6217017;28;20205;-56
2023/11/05 11:11:07;;;;;;;0.50;0.50;;;;;;;10.56;100.00;94893.91;6212450;28;20208;-55
2023/11/05 11:14:09;;;;;;;0.50;0.33;;;;;;;10.75;100.00;94896.28;6218127;28;20291;-55
2023/11/05 11:17:17;;;;;;;0.40;0.40;;;;;;;10.88;100.00;94901.78;6217411;28;20422;-57
2023/11/05 11:20:23;;;;;;;0.60;0.40;;;;;;;10.88;100.00;94893.78;6212577;28;20185;-56
2023/11/05 11:23:30;;;;;;;0.57;0.50;;;;;;;10.96;100.00;94901.78;6215390;28;20215;-55
2023/11/05 11:26:37;;;;;;;1.00;0.40;;;;;;;10.99;100.00;94895.06;6216600;28;20197;-55
2023/11/05 11:29:41;;;;;;;0.33;0.33;;;;;;;10.94;100.00;94909.31;6213553;28;20228;-56
2023/11/05 11:32:43;;;;;;;0.43;0.27;;;;;;;11.06;100.00;94919.34;6220935;28;20275;-52
2023/11/05 11:35:46;;;;;;;0.57;0.50;;;;;;;11.18;100.00;94929.38;6215644;28;20208;-56
2023/11/05 11:38:48;;;;;;;2.20;0.30;;;;;;;11.27;100.00;94930.19;6217424;28;20204;-54
2023/11/05 11:41:51;;;;;;;2.20;0.40;;;;;;;11.31;100.00;94934.56;6226027;28;20220;-53
2023/11/05 11:44:53;;;;;;;0.40;0.30;;;;;;;11.28;100.00;94953.06;6222568;28;20203;-53
2023/11/05 11:47:56;;;;;;;1.70;0.30;;;;;;;11.26;100.00;94958.72;6217581;28;20280;-52
2023/11/05 11:51:02;;;;;;;0.73;0.30;;;;;;;11.27;100.00;94960.28;6214893;28;20259;-53
2023/11/05 11:54:04;;;;;;;0.47;0.30;;;;;;;11.33;100.00;94955.59;6214438;28;20193;-52
2023/11/05 11:57:07;;;;;;;0.73;0.30;;;;;;;11.39;100.00;94972.22;6215157;28;20233;-51
2023/11/05 12:00:22;;;;;;;0.30;0.30;;;;;;;11.34;100.00;94973.16;6215651;28;20189;-50
2023/11/05 12:03:26;;;;;;;0.40;0.40;;;;;;;11.36;100.00;94968.28;6215766;28;20286;-52
2023/11/05 12:06:36;;;;;;;1.50;0.30;;;;;;;11.35;100.00;94972.84;6215076;28;20196;-50
2023/11/05 12:09:41;;;;;;;1.20;0.40;;;;;;;11.39;100.00;94981.00;6218996;28;20700;-51
2023/11/05 12:12:44;;;;;;;0.20;0.20;;;;;;;11.47;100.00;94990.84;6216596;28;20226;-52
2023/11/05 12:15:49;;;;;;;1.27;0.43;;;;;;;11.53;100.00;95004.84;6215646;28;20673;-52
2023/11/05 12:18:51;;;;;;;1.50;0.37;;;;;;;11.55;100.00;95016.75;6213210;28;20205;-54
2023/11/05 12:21:53;;;;;;;0.57;0.40;;;;;;;11.60;100.00;95021.94;6216205;28;20209;-52
2023/11/05 12:25:00;;;;;;;0.70;0.50;;;;;;;11.52;100.00;95020.03;6216536;28;20250;-51
2023/11/05 12:28:03;;;;;;;0.65;0.47;;;;;;;11.61;100.00;95028.81;6213314;28;20922;-52
2023/11/05 12:31:06;;;;;;;1.30;0.50;;;;;;;11.46;100.00;95025.84;6213995;28;20372;-51
2023/11/05 12:34:09;;;;;;;1.90;0.50;;;;;;;11.37;100.00;95039.94;6216576;28;20212;-50
2023/11/05 12:37:12;;;;;;;0.83;0.50;;;;;;;11.32;100.00;95033.97;6214408;28;20684;-49
2023/11/05 12:40:14;;;;;;;0.40;0.40;;;;;;;11.20;100.00;95028.47;6216942;28;20532;-52
2023/11/05 12:43:16;;;;;;;1.13;0.50;;;;;;;11.22;100.00;95044.91;6216062;28;20788;-50
2023/11/05 12:46:18;;;;;;;1.60;0.70;;;;;;;11.19;100.00;95058.88;6219207;28;20291;-51
2023/11/05 12:49:21;;;;;;;0.63;0.50;;;;;;;11.13;100.00;95068.09;6221521;28;20200;-51
2023/11/05 12:52:23;;;;;;;0.50;0.50;;;;;;;11.05;100.00;95075.75;6221468;28;20668;-51
2023/11/05 12:55:25;;;;;;;0.63;0.63;;;;;;;10.96;100.00;95069.59;6221568;28;20594;-52
2023/11/05 12:58:27;;;;;;;1.67;0.60;;;;;;;10.92;100.00;95070.53;6221946;28;20196;-51
2023/11/05 13:01:30;;;;;;;1.20;0.57;;;;;;;10.93;100.00;95069.44;6222005;28;20220;-51
2023/11/05 13:04:35;;;;;;;1.57;0.73;;;;;;;10.98;100.00;95059.41;6218728;28;20228;-50
2023/11/05 13:07:39;;;;;;;1.47;0.60;;;;;;;11.08;100.00;95053.84;6221288;28;20197;-52
2023/11/05 13:10:41;;;;;;;0.97;0.60;;;;;;;11.20;100.00;95057.78;6219767;28;20227;-53
2023/11/05 13:13:44;;;;;;;1.00;0.60;;;;;;;11.29;100.00;95066.59;6220941;28;20208;-52
2023/11/05 13:16:46;;;;;;;1.07;0.87;;;;;;;11.35;100.00;95087.44;6220989;28;20201;-50
2023/11/05 13:19:48;;;;;;;0.67;0.67;;;;;;;11.36;100.00;95078.34;6223203;28;20681;-51
2023/11/05 13:22:51;;;;;;;0.83;0.60;;;;;;;11.31;100.00;95107.81;6220604;28;21007;-52
2023/11/05 13:25:53;;;;;;;0.80;0.63;;;;;;;11.25;100.00;95121.59;6220821;28;20204;-51
2023/11/05 13:28:59;;;;;;;1.57;0.70;;;;;;;11.20;100.00;95124.41;6219717;28;20585;-50
2023/11/05 13:32:02;;;;;;;1.03;0.70;;;;;;;11.04;100.00;95132.03;6221055;28;20307;-49
2023/11/05 13:35:07;;;;;;;1.90;0.70;;;;;;;11.06;100.00;95143.13;6220413;28;20233;-52
2023/11/05 13:38:09;;;;;;;1.33;0.70;;;;;;;11.01;100.00;95152.06;6220191;28;20650;-51
2023/11/05 13:41:15;;;;;;;0.50;0.50;;;;;;;10.98;100.00;95154.53;6220408;28;20197;-51
2023/11/05 13:44:17;;;;;;;3.67;0.87;;;;;;;10.93;100.00;95160.78;6220349;28;20731;-51
2023/11/05 13:47:20;;;;;;;1.23;0.80;;;;;;;10.85;100.00;95158.88;6220109;28;20563;-50
2023/11/05 13:50:22;;;;;;;0.63;0.57;;;;;;;10.58;100.00;95130.50;6219953;28;20200;-50
2023/11/05 13:53:25;;;;;;;3.00;1.00;;;;;;;10.79;100.00;95166.19;6218931;28;20192;-53
2023/11/05 13:56:28;;;;;;;1.93;0.60;;;;;;;10.78;100.00;95161.94;6219913;28;20204;-51
2023/11/05 13:59:31;;;;;;;1.60;0.77;;;;;;;10.79;100.00;95162.75;6220081;28;20283;-52
2023/11/05 14:02:35;;;;;;;0.77;0.70;;;;;;;10.79;100.00;95163.53;6219817;28;20231;-51
2023/11/05 14:05:38;;;;;;;0.73;0.53;;;;;;;10.78;100.00;95185.13;6218160;28;20219;-53
2023/11/05 14:08:41;;;;;;;1.47;0.60;;;;;;;10.56;100.00;95177.94;6219957;28;20185;-54
2023/11/05 14:11:47;;;;;;;1.83;1.00;;;;;;;10.73;100.00;95212.66;6219522;28;20207;-55
2023/11/05 14:14:49;;;;;;;0.70;0.70;;;;;;;10.74;100.00;95211.59;6217999;28;20547;-54
2023/11/05 14:17:52;;;;;;;1.10;0.53;;;;;;;10.76;100.00;95213.94;6219765;28;20791;-52
2023/11/05 14:20:54;;;;;;;2.63;0.80;;;;;;;10.78;100.00;95223.19;6219599;28;20204;-51